sensor_id;sensor_type;location;lat;lon;timestamp;P1;durP1;ratioP1;P2;durP2;ratioP2
45734;SDS011;31446;49.632;8.328;2024-01-07T00:01:01;25.55;;;13.88;;
45734;SDS011;31446;49.632;8.328;2024-01-07T00:16:07;23.40;;;12.57;;
45734;SDS011;31446;49.632;8.328;2024-01-07T00:31:14;19.50;;;10.75;;
45734;SDS011;31446;49.632;8.328;2024-01-07T00:46:20;15.95;;;8.80;;
45734;SDS011;31446;49.632;8.328;2024-01-07T01:01:27;13.90;;;7.45;;
45734;SDS011;31446;49.632;8.328;2024-01-07T01:16:33;12.48;;;7.00;;
45734;SDS011;31446;49.632;8.328;2024-01-07T01:31:39;12.35;;;6.68;;
45734;SDS011;31446;49.632;8.328;2024-01-07T01:46:45;14.82;;;6.38;;
45734;SDS011;31446;49.632;8.328;2024-01-07T02:01:53;11.32;;;6.78;;
45734;SDS011;31446;49.632;8.328;2024-01-07T02:17:00;11.52;;;6.50;;
45734;SDS011;31446;49.632;8.328;2024-01-07T02:32:06;12.88;;;7.38;;
45734;SDS011;31446;49.632;8.328;2024-01-07T02:47:12;9.55;;;6.47;;
45734;SDS011;31446;49.632;8.328;2024-01-07T03:02:18;11.38;;;6.70;;
45734;SDS011;31446;49.632;8.328;2024-01-07T03:17:25;10.57;;;6.93;;
45734;SDS011;31446;49.632;8.328;2024-01-07T03:32:31;12.98;;;7.53;;
45734;SDS011;31446;49.632;8.328;2024-01-07T03:47:37;14.73;;;8.88;;
45734;SDS011;31446;49.632;8.328;2024-01-07T04:02:43;14.73;;;8.88;;
45734;SDS011;31446;49.632;8.328;2024-01-07T04:17:50;13.73;;;8.73;;
45734;SDS011;31446;49.632;8.328;2024-01-07T04:32:56;15.35;;;9.07;;
45734;SDS011;31446;49.632;8.328;2024-01-07T04:48:02;12.70;;;8.95;;
45734;SDS011;31446;49.632;8.328;2024-01-07T05:03:08;13.80;;;9.68;;
45734;SDS011;31446;49.632;8.328;2024-01-07T05:18:15;12.05;;;7.72;;
45734;SDS011;31446;49.632;8.328;2024-01-07T05:33:21;11.65;;;7.13;;
45734;SDS011;31446;49.632;8.328;2024-01-07T05:48:27;9.40;;;5.47;;
45734;SDS011;31446;49.632;8.328;2024-01-07T06:03:33;9.70;;;5.43;;
45734;SDS011;31446;49.632;8.328;2024-01-07T06:18:39;11.38;;;6.40;;
45734;SDS011;31446;49.632;8.328;2024-01-07T06:33:45;10.82;;;7.30;;
45734;SDS011;31446;49.632;8.328;2024-01-07T06:48:52;86.93;;;23.98;;
45734;SDS011;31446;49.632;8.328;2024-01-07T07:03:58;19.60;;;10.35;;
45734;SDS011;31446;49.632;8.328;2024-01-07T07:19:04;22.02;;;9.88;;
45734;SDS011;31446;49.632;8.328;2024-01-07T07:34:11;17.20;;;10.15;;
45734;SDS011;31446;49.632;8.328;2024-01-07T07:49:18;12.80;;;7.50;;
45734;SDS011;31446;49.632;8.328;2024-01-07T08:04:30;17.30;;;10.20;;
45734;SDS011;31446;49.632;8.328;2024-01-07T08:19:37;14.55;;;7.75;;
45734;SDS011;31446;49.632;8.328;2024-01-07T08:34:43;15.02;;;7.70;;
45734;SDS011;31446;49.632;8.328;2024-01-07T08:49:49;15.20;;;9.10;;
45734;SDS011;31446;49.632;8.328;2024-01-07T09:04:56;11.77;;;7.18;;
45734;SDS011;31446;49.632;8.328;2024-01-07T09:20:02;11.48;;;6.50;;
45734;SDS011;31446;49.632;8.328;2024-01-07T09:35:10;9.10;;;5.07;;
45734;SDS011;31446;49.632;8.328;2024-01-07T09:50:16;8.40;;;5.25;;
45734;SDS011;31446;49.632;8.328;2024-01-07T10:05:23;6.03;;;4.07;;
45734;SDS011;31446;49.632;8.328;2024-01-07T10:20:30;15.52;;;7.90;;
45734;SDS011;31446;49.632;8.328;2024-01-07T10:35:37;7.13;;;4.82;;
45734;SDS011;31446;49.632;8.328;2024-01-07T10:50:51;6.68;;;5.20;;
45734;SDS011;31446;49.632;8.328;2024-01-07T11:06:05;5.85;;;3.10;;
45734;SDS011;31446;49.632;8.328;2024-01-07T11:21:20;7.32;;;3.90;;
45734;SDS011;31446;49.632;8.328;2024-01-07T11:36:27;13.05;;;6.70;;
45734;SDS011;31446;49.632;8.328;2024-01-07T11:51:33;11.95;;;6.40;;
45734;SDS011;31446;49.632;8.328;2024-01-07T12:06:40;10.85;;;6.65;;
45734;SDS011;31446;49.632;8.328;2024-01-07T12:21:47;10.13;;;6.22;;
45734;SDS011;31446;49.632;8.328;2024-01-07T12:36:54;10.80;;;5.18;;
45734;SDS011;31446;49.632;8.328;2024-01-07T12:52:02;9.68;;;5.95;;
45734;SDS011;31446;49.632;8.328;2024-01-07T13:07:11;12.73;;;7.03;;
45734;SDS011;31446;49.632;8.328;2024-01-07T13:22:17;12.70;;;6.03;;
45734;SDS011;31446;49.632;8.328;2024-01-07T13:37:23;12.77;;;6.63;;
45734;SDS011;31446;49.632;8.328;2024-01-07T13:52:30;19.55;;;8.48;;
45734;SDS011;31446;49.632;8.328;2024-01-07T14:07:36;18.95;;;8.55;;
45734;SDS011;31446;49.632;8.328;2024-01-07T14:22:44;29.40;;;10.35;;
45734;SDS011;31446;49.632;8.328;2024-01-07T14:37:50;17.92;;;7.45;;
45734;SDS011;31446;49.632;8.328;2024-01-07T14:52:56;13.38;;;6.85;;
45734;SDS011;31446;49.632;8.328;2024-01-07T15:08:03;9.63;;;4.75;;
45734;SDS011;31446;49.632;8.328;2024-01-07T15:23:09;13.40;;;6.10;;
45734;SDS011;31446;49.632;8.328;2024-01-07T15:38:15;13.82;;;6.00;;
45734;SDS011;31446;49.632;8.328;2024-01-07T15:53:22;7.00;;;3.78;;
45734;SDS011;31446;49.632;8.328;2024-01-07T16:08:34;9.35;;;5.00;;
45734;SDS011;31446;49.632;8.328;2024-01-07T16:23:41;8.30;;;5.47;;
45734;SDS011;31446;49.632;8.328;2024-01-07T16:38:47;9.63;;;3.38;;
45734;SDS011;31446;49.632;8.328;2024-01-07T16:53:53;4.78;;;1.90;;
45734;SDS011;31446;49.632;8.328;2024-01-07T17:24:21;2.45;;;1.33;;
45734;SDS011;31446;49.632;8.328;2024-01-07T17:39:30;2.00;;;1.35;;
45734;SDS011;31446;49.632;8.328;2024-01-07T17:54:38;8.25;;;2.92;;
45734;SDS011;31446;49.632;8.328;2024-01-07T18:09:45;4.38;;;3.00;;
45734;SDS011;31446;49.632;8.328;2024-01-07T18:24:53;0.82;;;0.77;;
45734;SDS011;31446;49.632;8.328;2024-01-07T18:40:02;1.15;;;0.88;;
45734;SDS011;31446;49.632;8.328;2024-01-07T18:55:12;1.73;;;0.90;;
45734;SDS011;31446;49.632;8.328;2024-01-07T19:26:06;1.90;;;1.30;;
45734;SDS011;31446;49.632;8.328;2024-01-07T19:41:25;3.15;;;1.20;;
45734;SDS011;31446;49.632;8.328;2024-01-07T19:56:37;3.50;;;1.27;;
45734;SDS011;31446;49.632;8.328;2024-01-07T20:11:44;0.88;;;0.70;;
45734;SDS011;31446;49.632;8.328;2024-01-07T20:26:54;1.02;;;0.90;;
45734;SDS011;31446;49.632;8.328;2024-01-07T20:42:02;1.77;;;1.05;;
45734;SDS011;31446;49.632;8.328;2024-01-07T20:57:10;1.50;;;0.98;;
45734;SDS011;31446;49.632;8.328;2024-01-07T21:12:16;2.15;;;0.70;;
45734;SDS011;31446;49.632;8.328;2024-01-07T21:27:26;3.47;;;1.55;;
45734;SDS011;31446;49.632;8.328;2024-01-07T21:42:33;2.67;;;1.45;;
45734;SDS011;31446;49.632;8.328;2024-01-07T21:57:40;2.35;;;1.05;;
45734;SDS011;31446;49.632;8.328;2024-01-07T22:12:46;2.70;;;1.50;;
45734;SDS011;31446;49.632;8.328;2024-01-07T22:27:54;3.78;;;1.10;;
45734;SDS011;31446;49.632;8.328;2024-01-07T22:43:00;1.10;;;1.00;;
45734;SDS011;31446;49.632;8.328;2024-01-07T22:58:07;1.65;;;1.48;;
45734;SDS011;31446;49.632;8.328;2024-01-07T23:13:14;1.35;;;1.02;;
45734;SDS011;31446;49.632;8.328;2024-01-07T23:28:20;3.42;;;1.40;;
45734;SDS011;31446;49.632;8.328;2024-01-07T23:43:26;4.97;;;1.48;;
45734;SDS011;31446;49.632;8.328;2024-01-07T23:58:32;1.38;;;1.10;;
